Time;durP1;ratioP1;P1;durP2;ratioP2;P2;SDS_P1;SDS_P2;PMS_P1;PMS_P2;Temp;Humidity;BMP_temperature;BMP_pressure;BME280_temperature;BME280_humidity;BME280_pressure;Samples;Min_cycle;Max_cycle;Signal;HPM_P1;HPM_P2
2021/12/20 00:02:00;;;;;;;;;27.00;24.75;;;;;6.94;89.77;102502.59;6243089;22;45327;-74
2021/12/20 00:04:26;;;;;;;;;29.25;25.25;;;;;6.59;89.80;102446.88;6243215;22;46028;-74
2021/12/20 00:06:51;;;;;;;;;23.50;19.75;;;;;6.96;90.14;102503.44;6242512;22;45303;-73
2021/12/20 00:09:16;;;;;;;;;21.75;20.50;;;;;6.96;89.93;102500.84;6243360;22;45680;-73
2021/12/20 00:11:42;;;;;;;;;31.50;25.00;;;;;6.95;89.66;102497.38;6243026;22;45537;-72
2021/12/20 00:14:08;;;;;;;;;20.25;19.00;;;;;6.81;89.81;102468.63;6242872;22;46194;-72
2021/12/20 00:16:33;;;;;;;;;21.00;18.00;;;;;6.96;89.86;102493.00;6215024;22;45321;-73
2021/12/20 00:18:59;;;;;;;;;26.00;24.50;;;;;6.96;89.71;102498.22;6243250;22;45446;-73
2021/12/20 00:21:25;;;;;;;;;28.00;25.75;;;;;6.83;90.20;102479.94;6243088;22;45394;-74
2021/12/20 00:23:50;;;;;;;;;31.75;20.50;;;;;6.44;90.15;102408.56;6242403;22;46437;-73
2021/12/20 00:26:16;;;;;;;;;21.00;18.50;;;;;6.96;89.77;102490.41;6242885;22;45355;-73
2021/12/20 00:28:41;;;;;;;;;29.25;25.75;;;;;6.97;90.00;102495.63;6243179;22;45439;-73
2021/12/20 00:31:07;;;;;;;;;24.50;22.25;;;;;6.88;89.93;102479.97;6242206;22;45343;-73
2021/12/20 00:33:33;;;;;;;;;19.25;19.25;;;;;6.62;89.55;102428.59;6242314;22;45985;-74
2021/12/20 00:36:07;;;;;;;;;22.00;18.75;;;;;6.73;89.79;102436.44;6242230;22;45206;-73
2021/12/20 00:41:18;;;;;;;;;24.25;18.25;;;;;6.73;89.71;102446.00;6242607;22;45189;-74
2021/12/20 00:43:43;;;;;;;;;22.75;20.00;;;;;6.96;89.68;102478.22;6242736;22;45441;-74
2021/12/20 00:46:09;;;;;;;;;23.50;19.75;;;;;6.90;89.65;102461.69;6242491;22;45391;-73
2021/12/20 00:48:34;;;;;;;;;28.00;19.50;;;;;6.76;89.76;102432.97;6242880;22;45339;-73
2021/12/20 00:51:00;;;;;;;;;20.00;16.25;;;;;7.01;89.33;102470.41;6242878;22;45295;-73
2021/12/20 00:53:25;;;;;;;;;15.50;15.50;;;;;6.87;89.42;102454.72;6242758;22;45369;-73
2021/12/20 00:55:51;;;;;;;;;23.25;18.75;;;;;6.83;89.22;102439.94;6242334;22;45247;-74
2021/12/20 00:58:16;;;;;;;;;20.25;18.25;;;;;6.89;89.05;102452.97;6242586;22;45331;-73
2021/12/20 01:00:46;;;;;;;;;24.75;20.25;;;;;7.00;89.47;102459.09;6242213;22;45296;-73
2021/12/20 01:03:13;;;;;;;;;21.75;18.00;;;;;6.72;88.96;102415.59;6241910;22;46223;-73
2021/12/20 01:05:39;;;;;;;;;23.75;20.50;;;;;6.99;88.74;102465.19;6242554;22;45571;-73
2021/12/20 01:08:07;;;;;;;;;23.00;20.50;;;;;7.00;88.85;102469.53;6242770;22;45343;-73
2021/12/20 01:10:35;;;;;;;;;22.00;19.00;;;;;6.98;89.03;102471.28;6242687;22;45103;-73
2021/12/20 01:13:03;;;;;;;;;20.75;19.75;;;;;6.96;88.83;102465.16;6242460;22;45832;-74
2021/12/20 01:15:33;;;;;;;;;26.00;22.50;;;;;6.95;89.14;102454.75;6241872;22;45293;-75
2021/12/20 01:17:59;;;;;;;;;23.75;20.75;;;;;6.95;88.99;102457.38;6242881;22;45323;-74
2021/12/20 01:20:26;;;;;;;;;22.00;18.50;;;;;6.96;89.41;102454.72;6242556;22;45442;-73
2021/12/20 01:22:52;;;;;;;;;21.75;18.50;;;;;6.60;89.10;102391.22;6240782;22;46659;-73
2021/12/20 01:25:19;;;;;;;;;25.50;19.50;;;;;6.64;89.22;102398.19;6241908;22;45376;-73
2021/12/20 01:27:46;;;;;;;;;24.50;21.00;;;;;6.91;89.50;102447.78;6243767;22;45248;-73
2021/12/20 01:30:14;;;;;;;;;23.50;17.00;;;;;6.80;89.36;102446.03;6248409;22;45249;-73
2021/12/20 01:32:40;;;;;;;;;19.75;16.00;;;;;6.94;89.84;102458.22;6256523;22;45421;-71
2021/12/20 01:35:06;;;;;;;;;27.25;21.25;;;;;6.95;89.67;102460.84;6253830;22;45260;-72
2021/12/20 01:37:32;;;;;;;;;18.00;15.00;;;;;6.92;89.68;102439.94;6250777;22;45370;-73
2021/12/20 01:39:58;;;;;;;;;19.50;16.50;;;;;6.90;89.45;102433.84;6243884;22;45290;-72
2021/12/20 01:42:25;;;;;;;;;20.00;17.00;;;;;7.02;89.55;102454.75;6243011;22;45359;-72
2021/12/20 01:44:55;;;;;;;;;21.50;19.00;;;;;7.03;89.52;102460.81;6242703;22;45328;-73
2021/12/20 01:47:21;;;;;;;;;20.75;17.75;;;;;6.93;89.16;102431.25;6215001;22;45205;-73
2021/12/20 01:50:06;;;;;;;;;20.25;17.50;;;;;6.96;89.20;102439.06;6214351;22;45726;-73
2021/12/20 01:52:40;;;;;;;;;18.25;18.00;;;;;6.81;89.55;102428.63;6214728;22;48066;-73
2021/12/20 01:55:12;;;;;;;;;19.50;16.50;;;;;6.63;89.73;102404.25;6241761;22;45327;-73
2021/12/20 01:57:38;;;;;;;;;21.00;13.00;;;;;7.00;90.04;102455.59;6242122;22;45283;-74
2021/12/20 02:00:10;;;;;;;;;14.50;14.50;;;;;7.02;89.69;102451.28;6242624;22;45272;-74
2021/12/20 02:02:36;;;;;;;;;21.00;15.50;;;;;6.89;89.74;102421.66;6242341;22;45352;-75
2021/12/20 02:05:13;;;;;;;;;14.50;13.75;;;;;6.95;89.99;102436.47;6244699;22;45308;-72
2021/12/20 02:07:59;;;;;;;;;17.75;14.50;;;;;7.06;89.66;102455.63;6216897;22;45376;-75
2021/12/20 02:10:25;;;;;;;;;18.50;14.50;;;;;7.04;89.79;102444.31;6242569;22;45329;-74
2021/12/20 02:12:51;;;;;;;;;20.00;15.25;;;;;7.05;89.84;102432.97;6242459;22;45363;-74
2021/12/20 02:15:17;;;;;;;;;15.25;13.25;;;;;7.03;89.41;102443.44;6242319;22;45312;-74
2021/12/20 02:17:42;;;;;;;;;18.00;18.00;;;;;7.03;89.68;102453.00;6241926;22;45495;-74
2021/12/20 02:20:09;;;;;;;;;22.25;19.25;;;;;6.80;89.70;102399.09;6241633;22;45378;-74
2021/12/20 02:22:38;;;;;;;;;18.75;17.25;;;;;7.03;89.00;102432.13;6189202;22;48327;-75
2021/12/20 02:25:05;;;;;;;;;26.75;18.50;;;;;7.03;89.11;102439.94;6242460;22;45332;-74
2021/12/20 02:27:30;;;;;;;;;17.00;17.00;;;;;7.04;89.45;102437.34;6242404;22;45308;-74
2021/12/20 02:30:07;;;;;;;;;15.00;12.67;;;;;7.05;89.43;102432.97;6214558;22;45412;-74
2021/12/20 02:38:23;;;;;;;;;22.75;18.25;;;;;6.88;88.75;102404.28;6242045;22;45384;-74
2021/12/20 02:41:04;;;;;;;;;19.75;19.00;;;;;7.04;89.02;102429.50;6242191;22;45304;-74
2021/12/20 02:43:34;;;;;;;;;24.00;18.50;;;;;6.72;88.65;102366.88;6242146;22;45999;-73
2021/12/20 02:46:03;;;;;;;;;24.75;20.75;;;;;7.10;88.58;102433.00;6241958;22;45299;-74
2021/12/20 02:48:28;;;;;;;;;20.25;19.00;;;;;6.54;88.08;102333.84;6242368;22;45221;-73
2021/12/20 02:50:55;;;;;;;;;15.25;15.25;;;;;6.96;88.20;102401.66;6242255;22;45312;-74
2021/12/20 02:53:20;;;;;;;;;13.75;13.00;;;;;6.87;88.13;102389.50;6241640;22;46350;-74
2021/12/20 02:55:46;;;;;;;;;19.25;16.75;;;;;6.79;87.80;102363.41;6241937;22;45288;-74
2021/12/20 02:58:11;;;;;;;;;19.00;14.50;;;;;6.83;88.13;102370.34;6214171;22;45801;-74
2021/12/20 03:00:37;;;;;;;;;19.00;16.50;;;;;7.15;88.04;102423.44;6242377;22;45343;-74
2021/12/20 03:03:02;;;;;;;;;18.25;16.25;;;;;6.93;87.53;102383.41;6241751;22;45343;-74
2021/12/20 03:05:28;;;;;;;;;20.50;18.50;;;;;7.13;87.66;102422.56;6214564;22;45376;-72
2021/12/20 03:07:54;;;;;;;;;18.33;17.33;;;;;7.12;87.97;102426.03;6242540;22;45293;-74
2021/12/20 03:10:21;;;;;;;;;20.50;19.00;;;;;7.13;88.13;102425.16;6241929;22;45331;-75
2021/12/20 03:12:49;;;;;;;;;23.25;20.00;;;;;7.00;87.85;102406.00;6241581;22;46254;-73
2021/12/20 03:15:20;;;;;;;;;23.25;15.50;;;;;7.11;87.83;102417.34;6241977;22;45391;-73
2021/12/20 03:17:46;;;;;;;;;22.75;20.00;;;;;7.03;88.00;102404.31;6239512;22;45658;-74
2021/12/20 03:20:14;;;;;;;;;22.25;20.50;;;;;6.82;88.09;102384.28;6214911;22;45431;-73
2021/12/20 03:22:40;;;;;;;;;20.00;18.75;;;;;6.91;88.52;102406.91;6242167;22;45966;-73
2021/12/20 03:25:06;;;;;;;;;29.75;22.75;;;;;6.85;88.64;102393.84;6241954;22;45427;-74
2021/12/20 03:27:32;;;;;;;;;24.00;21.50;;;;;7.04;88.55;102413.00;6242137;22;45371;-74
2021/12/20 03:29:57;;;;;;;;;23.50;18.75;;;;;7.02;88.37;102407.78;6241931;22;45219;-73
2021/12/20 03:32:22;;;;;;;;;26.75;23.00;;;;;6.69;88.61;102374.69;6239861;22;46003;-73
2021/12/20 03:34:48;;;;;;;;;20.75;20.00;;;;;6.71;88.99;102372.97;6246508;22;45302;-73
2021/12/20 03:37:13;;;;;;;;;23.25;18.50;;;;;6.93;89.07;102406.88;6251307;22;45232;-72
2021/12/20 03:39:39;;;;;;;;;23.75;20.50;;;;;6.89;89.31;102400.78;6227495;22;45200;-72
2021/12/20 03:42:05;;;;;;;;;20.50;18.75;;;;;6.58;89.38;102352.97;6220085;22;46809;-73
2021/12/20 03:44:32;;;;;;;;;25.25;22.50;;;;;6.85;89.64;102394.69;6241725;22;45333;-72
2021/12/20 03:47:00;;;;;;;;;22.25;20.00;;;;;6.90;89.74;102396.47;6213800;22;45368;-72
2021/12/20 03:49:25;;;;;;;;;24.75;21.50;;;;;6.75;89.42;102377.34;6213792;22;45348;-73
2021/12/20 03:51:51;;;;;;;;;25.50;22.50;;;;;6.89;89.56;102394.72;6241544;22;45340;-73
2021/12/20 03:54:16;;;;;;;;;22.50;19.50;;;;;6.91;89.74;102393.88;6241730;22;45350;-74
2021/12/20 03:56:42;;;;;;;;;29.75;23.00;;;;;6.92;89.46;102395.59;6240907;22;45394;-73
2021/12/20 03:59:07;;;;;;;;;28.50;24.75;;;;;6.94;89.60;102404.28;6241231;22;45419;-73
2021/12/20 04:01:33;;;;;;;;;24.25;23.00;;;;;6.97;89.53;102401.69;6241734;22;45340;-74
2021/12/20 04:04:00;;;;;;;;;26.50;24.00;;;;;6.98;89.67;102403.44;6241658;22;45440;-73
2021/12/20 04:06:26;;;;;;;;;20.25;20.25;;;;;7.01;89.47;102399.94;6240986;22;45369;-73
2021/12/20 04:08:52;;;;;;;;;27.25;21.75;;;;;6.91;89.25;102385.13;6213843;22;45796;-73
2021/12/20 04:11:18;;;;;;;;;25.00;19.00;;;;;6.60;89.45;102335.59;6241247;22;45296;-73
2021/12/20 04:13:43;;;;;;;;;18.25;18.25;;;;;6.89;89.54;102387.75;6241626;22;45255;-74
2021/12/20 04:16:09;;;;;;;;;23.25;20.75;;;;;7.04;89.48;102405.16;6240938;22;45314;-74
2021/12/20 04:18:34;;;;;;;;;22.00;19.25;;;;;6.86;89.36;102372.13;6238984;22;45485;-73
2021/12/20 04:21:00;;;;;;;;;23.25;19.00;;;;;7.03;88.84;102398.19;6241339;22;46070;-74
2021/12/20 04:23:25;;;;;;;;;23.50;22.25;;;;;6.89;89.17;102381.66;6240602;22;45419;-72
2021/12/20 04:25:51;;;;;;;;;22.00;20.50;;;;;6.93;89.18;102381.69;6241615;22;45381;-73
2021/12/20 04:28:16;;;;;;;;;17.75;16.75;;;;;7.01;88.99;102390.34;6241412;22;45248;-73
2021/12/20 04:30:42;;;;;;;;;22.75;19.75;;;;;7.02;89.32;102394.72;6241266;22;46987;-73
2021/12/20 04:33:08;;;;;;;;;19.75;18.25;;;;;7.03;89.08;102390.34;6242551;22;45347;-73
2021/12/20 04:35:33;;;;;;;;;23.00;19.00;;;;;6.87;88.95;102359.94;6242724;22;45297;-71
2021/12/20 04:38:00;;;;;;;;;18.00;17.25;;;;;6.96;89.13;102381.66;6242952;22;45396;-73
2021/12/20 04:40:26;;;;;;;;;22.25;18.75;;;;;7.02;89.18;102386.88;6243006;22;45401;-73
2021/12/20 04:42:57;;;;;;;;;20.50;19.50;;;;;7.02;88.97;102388.63;6243019;22;45261;-73
2021/12/20 04:45:25;;;;;;;;;28.50;21.00;;;;;6.99;89.07;102389.50;6242379;22;45474;-73
2021/12/20 04:47:50;;;;;;;;;18.25;17.75;;;;;6.89;89.32;102366.00;6242705;22;45265;-73
2021/12/20 04:50:17;;;;;;;;;18.00;18.00;;;;;6.89;89.26;102376.44;6242366;22;45993;-73
2021/12/20 04:52:43;;;;;;;;;24.00;20.50;;;;;6.95;89.22;102384.28;6242101;22;45414;-73
2021/12/20 04:55:10;;;;;;;;;20.50;18.50;;;;;7.06;89.29;102405.16;6242888;22;45315;-73
2021/12/20 04:57:36;;;;;;;;;19.75;19.50;;;;;6.76;89.32;102354.72;6242479;22;45217;-72
2021/12/20 05:00:06;;;;;;;;;22.00;19.25;;;;;6.97;89.04;102387.78;6242085;22;46214;-72
2021/12/20 05:02:31;;;;;;;;;21.75;20.00;;;;;6.96;89.15;102399.06;6242230;22;45450;-72
2021/12/20 05:04:56;;;;;;;;;19.75;18.25;;;;;6.91;89.13;102386.03;6242883;22;45154;-72
2021/12/20 05:07:23;;;;;;;;;20.75;18.75;;;;;6.91;88.75;102398.19;6243118;22;45118;-72
2021/12/20 05:09:49;;;;;;;;;21.75;19.50;;;;;6.92;88.85;102397.34;6242807;22;45196;-73
2021/12/20 05:12:14;;;;;;;;;21.25;19.50;;;;;6.79;88.71;102373.84;6242513;22;45255;-73
2021/12/20 05:14:44;;;;;;;;;17.00;16.75;;;;;6.61;88.10;102340.81;6242702;22;45406;-74
2021/12/20 05:17:13;;;;;;;;;20.00;16.75;;;;;6.94;87.75;102395.59;6214791;22;45384;-74
2021/12/20 05:19:39;;;;;;;;;26.50;24.50;;;;;6.84;87.52;102376.47;6241468;22;46047;-74
2021/12/20 05:22:05;;;;;;;;;15.00;10.75;;;;;6.94;87.33;102392.97;6241610;22;45260;-74
2021/12/20 05:24:30;;;;;;;;;22.75;18.00;;;;;6.96;87.48;102396.44;6240577;22;45366;-73
2021/12/20 05:26:56;;;;;;;;;17.50;16.50;;;;;6.88;87.21;102377.34;6242280;22;45410;-73
2021/12/20 05:29:23;;;;;;;;;15.25;13.75;;;;;6.99;87.07;102401.69;6242777;22;46201;-73
2021/12/20 05:31:49;;;;;;;;;18.50;17.75;;;;;6.97;86.01;102406.91;6242412;22;45366;-73
2021/12/20 05:34:14;;;;;;;;;18.00;14.00;;;;;6.69;85.86;102353.84;6241546;22;45433;-73
2021/12/20 05:36:40;;;;;;;;;19.00;15.25;;;;;6.93;85.54;102394.72;6242494;22;45189;-73
2021/12/20 05:39:05;;;;;;;;;19.50;16.50;;;;;6.93;85.61;102399.94;6242476;22;45366;-71
2021/12/20 05:41:30;;;;;;;;;16.25;14.50;;;;;6.92;85.25;102402.56;6214736;22;45422;-74
2021/12/20 05:43:56;;;;;;;;;19.25;17.00;;;;;6.92;85.63;102399.94;6253673;22;45133;-74
2021/12/20 05:46:21;;;;;;;;;19.00;17.75;;;;;6.60;85.36;102346.00;6253957;22;45228;-74
2021/12/20 05:48:47;;;;;;;;;20.25;18.75;;;;;6.69;85.60;102355.59;6247047;22;45540;-74
2021/12/20 05:51:12;;;;;;;;;21.00;18.50;;;;;6.66;85.65;102361.66;6215478;22;45270;-74
2021/12/20 05:53:38;;;;;;;;;22.33;19.33;;;;;6.39;85.73;102311.22;6241063;22;45387;-73
2021/12/20 05:56:04;;;;;;;;;18.33;16.00;;;;;6.95;85.80;102403.41;6243436;22;45233;-73
2021/12/20 05:58:29;;;;;;;;;21.00;20.33;;;;;6.96;85.79;102404.28;6242133;22;45908;-73
2021/12/20 06:00:55;;;;;;;;;23.00;21.00;;;;;6.98;85.52;102413.88;6242599;22;45526;-73
2021/12/20 06:03:20;;;;;;;;;23.67;18.00;;;;;6.93;85.43;102407.78;6242221;22;45399;-72
2021/12/20 06:05:45;;;;;;;;;23.33;19.00;;;;;6.87;85.59;102388.63;6242620;22;45299;-73
2021/12/20 06:08:11;;;;;;;;;20.00;20.00;;;;;6.89;85.00;102405.16;6215152;22;46087;-72
2021/12/20 06:10:37;;;;;;;;;20.33;18.33;;;;;7.00;84.91;102419.06;6242770;22;45360;-72
2021/12/20 06:13:04;;;;;;;;;19.33;18.67;;;;;7.00;84.88;102422.56;6241903;22;45339;-73
2021/12/20 06:15:30;;;;;;;;;23.00;20.67;;;;;6.76;84.76;102379.06;6242200;22;45340;-72
2021/12/20 06:17:55;;;;;;;;;26.00;20.67;;;;;6.65;84.95;102358.19;6242177;22;45207;-73
2021/12/20 06:20:21;;;;;;;;;21.33;19.00;;;;;7.01;84.38;102423.41;6242084;22;45233;-73
2021/12/20 06:22:46;;;;;;;;;23.33;19.00;;;;;6.76;84.71;102375.59;6242521;22;45312;-73
2021/12/20 06:25:12;;;;;;;;;15.00;15.00;;;;;7.02;84.36;102426.03;6242508;22;45137;-72
2021/12/20 06:27:39;;;;;;;;;21.00;20.00;;;;;6.93;83.97;102404.28;6241574;22;46996;-72
2021/12/20 06:30:08;;;;;;;;;25.00;21.67;;;;;6.92;83.89;102400.81;6242437;22;45607;-72
2021/12/20 06:32:35;;;;;;;;;27.33;23.00;;;;;6.63;83.96;102362.53;6242392;22;45371;-73
2021/12/20 06:35:01;;;;;;;;;21.33;19.67;;;;;6.99;83.95;102423.41;6241760;22;45211;-70
2021/12/20 06:37:26;;;;;;;;;23.00;21.00;;;;;7.00;83.77;102424.28;6213897;22;47689;-70
2021/12/20 06:39:52;;;;;;;;;18.67;18.67;;;;;7.01;84.09;102423.41;6214361;22;45317;-73
2021/12/20 06:42:17;;;;;;;;;21.33;20.00;;;;;7.00;84.26;102426.88;6242424;22;45372;-73
2021/12/20 06:44:43;;;;;;;;;26.33;20.33;;;;;6.62;83.45;102371.22;6242293;22;45214;-74
2021/12/20 06:47:09;;;;;;;;;29.67;24.67;;;;;6.85;83.95;102404.28;6214287;22;46003;-72
2021/12/20 06:49:35;;;;;;;;;25.00;24.00;;;;;6.65;83.53;102376.44;6241461;22;45172;-71
2021/12/20 06:52:02;;;;;;;;;26.67;25.00;;;;;6.97;83.59;102432.13;6241543;22;45462;-72
2021/12/20 06:54:28;;;;;;;;;25.00;21.00;;;;;6.97;83.75;102429.53;6241238;22;45194;-73
2021/12/20 06:56:53;;;;;;;;;30.33;25.33;;;;;6.96;83.10;102431.25;6241629;22;45334;-73
2021/12/20 06:59:18;;;;;;;;;32.50;29.50;;;;;6.61;83.89;102371.25;6242336;22;45342;-73
2021/12/20 07:01:44;;;;;;;;;28.33;25.67;;;;;6.81;83.71;102399.94;6242493;22;45606;-73
2021/12/20 07:04:12;;;;;;;;;29.33;28.00;;;;;6.96;83.13;102430.38;6242241;22;45250;-73
2021/12/20 07:06:38;;;;;;;;;27.67;26.67;;;;;6.82;83.76;102410.38;6242116;22;45252;-71
2021/12/20 07:09:03;;;;;;;;;30.67;27.33;;;;;6.95;83.29;102429.53;6242101;22;45272;-73
2021/12/20 07:11:29;;;;;;;;;27.33;26.00;;;;;6.95;83.40;102426.03;6242344;22;45253;-71
2021/12/20 07:13:55;;;;;;;;;29.67;27.00;;;;;6.37;83.24;102330.34;6214471;22;45338;-72
2021/12/20 07:16:21;;;;;;;;;32.67;27.00;;;;;6.46;82.78;102349.47;6214072;22;46805;-72
2021/12/20 07:18:46;;;;;;;;;26.67;25.33;;;;;6.77;83.25;102403.41;6240969;22;45267;-70
2021/12/20 07:21:12;;;;;;;;;25.67;19.67;;;;;6.62;83.19;102375.56;6242081;22;45311;-72
2021/12/20 07:23:37;;;;;;;;;26.67;25.33;;;;;6.74;83.19;102404.28;6241993;22;45296;-74
2021/12/20 07:26:03;;;;;;;;;37.67;29.67;;;;;6.90;83.69;102439.06;6215193;22;45894;-72
2021/12/20 07:28:29;;;;;;;;;35.33;27.67;;;;;6.89;83.51;102439.06;6242044;22;45473;-72
2021/12/20 07:30:55;;;;;;;;;30.33;27.00;;;;;6.89;83.67;102439.94;6241048;22;45286;-74
2021/12/20 07:33:20;;;;;;;;;28.67;27.67;;;;;6.90;83.99;102444.28;6242253;22;45140;-72
2021/12/20 07:35:46;;;;;;;;;23.00;20.00;;;;;6.91;83.44;102445.16;6241797;22;45641;-72
2021/12/20 07:38:13;;;;;;;;;28.67;24.00;;;;;6.91;83.88;102442.53;6241030;22;45365;-72
2021/12/20 07:40:47;;;;;;;;;26.33;22.67;;;;;6.90;83.58;102444.28;6242213;22;45166;-72
2021/12/20 07:43:14;;;;;;;;;31.00;25.00;;;;;6.92;83.85;102444.31;6241612;22;45138;-71
2021/12/20 07:45:41;;;;;;;;;30.67;25.33;;;;;6.78;84.28;102421.66;6241083;22;47011;-72
2021/12/20 07:48:07;;;;;;;;;29.67;28.00;;;;;6.92;84.18;102450.38;6213828;22;45570;-71
2021/12/20 07:50:32;;;;;;;;;31.00;29.33;;;;;6.82;83.98;102428.66;6241642;22;45224;-71
2021/12/20 07:52:59;;;;;;;;;35.00;31.67;;;;;6.76;83.79;102425.16;6242007;22;45283;-71
2021/12/20 07:55:25;;;;;;;;;29.67;27.00;;;;;6.49;83.68;102384.25;6241924;22;45352;-73
2021/12/20 07:57:51;;;;;;;;;31.33;25.33;;;;;6.84;84.06;102441.69;6215072;22;45530;-72
2021/12/20 08:00:17;;;;;;;;;27.33;25.33;;;;;6.48;83.66;102383.38;6245399;22;45176;-72
2021/12/20 08:02:43;;;;;;;;;30.33;26.00;;;;;6.75;83.71;102442.56;6244667;22;45316;-73
2021/12/20 08:05:12;;;;;;;;;34.33;29.00;;;;;6.91;83.97;102461.72;6245350;22;46134;-73
2021/12/20 08:07:38;;;;;;;;;34.67;29.00;;;;;6.92;84.14;102467.78;6245591;22;45352;-72
2021/12/20 08:10:04;;;;;;;;;28.33;24.67;;;;;6.58;83.86;102405.13;6245425;22;45389;-73
2021/12/20 08:12:29;;;;;;;;;33.67;30.67;;;;;6.93;83.60;102461.69;6215187;22;45332;-73
2021/12/20 08:14:55;;;;;;;;;23.00;22.00;;;;;6.68;83.85;102421.66;6243516;22;45930;-72
2021/12/20 08:17:20;;;;;;;;;31.33;29.33;;;;;6.95;83.84;102460.84;6246166;22;45133;-72
2021/12/20 08:19:46;;;;;;;;;30.00;25.67;;;;;6.97;84.15;102471.28;6248700;22;45519;-72
2021/12/20 08:22:11;;;;;;;;;31.00;29.33;;;;;6.73;83.40;102423.38;6244637;22;45273;-71
2021/12/20 08:24:36;;;;;;;;;27.00;24.33;;;;;6.99;83.68;102467.78;6245213;22;45133;-71
2021/12/20 08:27:02;;;;;;;;;30.67;24.67;;;;;6.93;83.06;102459.06;6244008;22;45318;-71
2021/12/20 08:29:29;;;;;;;;;30.00;28.25;;;;;6.93;83.12;102457.34;6243498;22;45213;-71
2021/12/20 08:31:56;;;;;;;;;24.67;24.00;;;;;6.46;82.02;102378.16;6215284;22;45396;-72
2021/12/20 08:34:21;;;;;;;;;26.00;22.67;;;;;7.06;81.58;102473.03;6242778;22;46465;-72
2021/12/20 08:36:46;;;;;;;;;28.00;26.00;;;;;6.64;81.71;102394.69;6242167;22;45360;-72
2021/12/20 08:39:17;;;;;;;;;28.67;26.00;;;;;7.09;81.69;102476.50;6215266;22;45393;-72
2021/12/20 08:41:43;;;;;;;;;28.00;25.67;;;;;7.11;81.50;102477.38;6243092;22;45211;-72
2021/12/20 08:44:08;;;;;;;;;29.67;21.67;;;;;6.92;80.45;102442.56;6242947;22;45306;-73
2021/12/20 08:46:34;;;;;;;;;22.00;19.67;;;;;7.15;81.26;102478.25;6242095;22;45323;-72
2021/12/20 08:48:59;;;;;;;;;30.67;20.00;;;;;7.09;80.69;102463.47;6243043;22;45383;-75
2021/12/20 08:51:25;;;;;;;;;21.33;19.00;;;;;7.03;80.46;102446.06;6242585;22;45460;-73
2021/12/20 08:53:51;;;;;;;;;21.67;20.00;;;;;7.13;80.32;102456.50;6241992;22;45333;-73
2021/12/20 08:56:16;;;;;;;;;24.00;19.33;;;;;6.80;80.36;102392.97;6242838;22;45244;-74
2021/12/20 08:58:42;;;;;;;;;26.00;24.67;;;;;6.97;80.09;102422.56;6215344;22;45412;-73
2021/12/20 09:01:07;;;;;;;;;23.67;21.33;;;;;7.29;79.90;102465.19;6242764;22;45340;-73
2021/12/20 09:03:33;;;;;;;;;32.33;24.67;;;;;7.04;79.16;102431.25;6242102;22;46676;-72
2021/12/20 09:05:58;;;;;;;;;24.33;23.67;;;;;7.29;79.37;102476.50;6242537;22;45374;-72
2021/12/20 09:08:23;;;;;;;;;23.67;21.00;;;;;6.95;79.34;102413.00;6243022;22;45280;-72
2021/12/20 09:10:50;;;;;;;;;25.00;23.67;;;;;7.10;79.80;102433.00;6215317;22;45199;-72
2021/12/20 09:13:16;;;;;;;;;23.00;19.33;;;;;7.30;79.58;102456.47;6189910;22;47152;-72
2021/12/20 09:15:42;;;;;;;;;25.00;21.00;;;;;7.43;79.38;102476.50;6242689;22;45328;-72
2021/12/20 09:18:08;;;;;;;;;24.67;19.67;;;;;7.45;78.83;102473.91;6214455;22;45325;-73
2021/12/20 09:20:36;;;;;;;;;28.00;24.00;;;;;7.46;78.32;102481.72;6242313;22;45262;-72
2021/12/20 09:23:06;;;;;;;;;25.33;19.33;;;;;7.27;78.26;102451.28;6241684;22;45529;-73
2021/12/20 09:25:36;;;;;;;;;22.67;19.67;;;;;7.17;77.59;102422.53;6242651;22;45214;-72
2021/12/20 09:28:04;;;;;;;;;20.67;18.00;;;;;7.50;78.04;102482.59;6242598;22;45368;-71
2021/12/20 09:30:31;;;;;;;;;17.33;17.33;;;;;7.51;77.39;102476.47;6241939;22;45355;-72
2021/12/20 09:32:56;;;;;;;;;19.67;16.00;;;;;7.54;76.44;102477.34;6242344;22;46733;-73
2021/12/20 09:35:22;;;;;;;;;12.00;12.00;;;;;7.38;75.94;102446.91;6242610;22;45364;-73
2021/12/20 09:37:51;;;;;;;;;16.00;15.00;;;;;7.62;76.46;102485.16;6242730;22;45271;-73
2021/12/20 09:40:20;;;;;;;;;18.00;14.00;;;;;7.43;76.32;102440.81;6242795;22;45241;-73
2021/12/20 09:42:51;;;;;;;;;19.00;19.00;;;;;7.69;76.12;102476.47;6242545;22;45359;-72
2021/12/20 09:45:18;;;;;;;;;17.67;15.00;;;;;7.65;75.46;102466.88;6242198;22;45520;-73
2021/12/20 09:47:44;;;;;;;;;17.33;13.00;;;;;7.37;75.96;102412.09;6214857;22;45343;-72
2021/12/20 09:50:11;;;;;;;;;19.00;15.67;;;;;7.68;75.28;102469.50;6241733;22;45441;-72
2021/12/20 09:52:37;;;;;;;;;20.33;16.00;;;;;7.80;74.63;102481.69;6241616;22;46308;-72
2021/12/20 09:55:03;;;;;;;;;13.33;12.33;;;;;7.77;74.41;102477.31;6242604;22;45219;-71
2021/12/20 09:57:30;;;;;;;;;17.67;12.67;;;;;7.72;73.81;102463.38;6242159;22;45311;-72
2021/12/20 09:59:56;;;;;;;;;18.00;15.00;;;;;7.88;73.35;102485.13;6242647;22;45275;-72
2021/12/20 10:02:22;;;;;;;;;21.67;13.00;;;;;7.92;72.79;102483.38;6242387;22;45981;-72
2021/12/20 10:04:47;;;;;;;;;16.67;12.67;;;;;7.93;73.15;102478.16;6241584;22;45344;-72
2021/12/20 10:07:18;;;;;;;;;18.33;14.33;;;;;7.97;73.57;102481.63;6241865;22;45324;-72
2021/12/20 10:09:46;;;;;;;;;18.33;11.67;;;;;7.98;73.48;102491.22;6242476;22;45311;-69
2021/12/20 10:12:26;;;;;;;;;18.67;14.33;;;;;7.99;72.79;102491.22;6241601;22;46406;-70
2021/12/20 10:15:06;;;;;;;;;19.33;14.33;;;;;8.02;72.04;102490.31;6241611;22;45316;-69
2021/12/20 10:17:49;;;;;;;;;18.33;14.00;;;;;8.02;70.17;102490.31;6242189;22;45355;-69
2021/12/20 10:20:18;;;;;;;;;16.33;15.00;;;;;8.05;71.53;102485.09;6242664;22;45371;-69
2021/12/20 10:22:44;;;;;;;;;14.67;13.00;;;;;7.76;71.26;102422.44;6241324;22;47215;-69
2021/12/20 10:25:20;;;;;;;;;19.00;18.67;;;;;8.10;70.86;102483.34;6242407;22;45350;-69
2021/12/20 10:27:45;;;;;;;;;19.33;16.00;;;;;8.04;70.88;102465.03;6214873;22;45363;-71
2021/12/20 10:30:26;;;;;;;;;18.00;16.00;;;;;8.15;70.78;102465.88;6242329;22;45213;-69
2021/12/20 10:32:52;;;;;;;;;15.67;15.67;;;;;8.23;70.48;102467.59;6242483;22;45374;-70
2021/12/20 10:35:26;;;;;;;;;19.33;14.67;;;;;8.25;70.06;102474.56;6214443;22;45368;-69
2021/12/20 10:37:58;;;;;;;;;13.00;13.00;;;;;8.27;69.40;102472.78;6241715;22;45276;-69
2021/12/20 10:40:24;;;;;;;;;13.33;13.33;;;;;8.31;68.90;102469.28;6242174;22;45312;-69
2021/12/20 10:42:50;;;;;;;;;9.33;9.33;;;;;8.33;69.56;102484.97;6242222;22;45284;-69
2021/12/20 10:45:19;;;;;;;;;15.00;13.00;;;;;8.11;69.65;102442.38;6241482;22;45308;-69
2021/12/20 10:47:47;;;;;;;;;13.00;11.67;;;;;8.35;69.18;102491.09;6241742;22;45278;-69
2021/12/20 10:50:30;;;;;;;;;18.00;13.67;;;;;8.38;69.47;102478.88;6242204;22;45315;-69
2021/12/20 10:53:14;;;;;;;;;16.33;13.33;;;;;8.41;69.28;102493.66;6242064;22;45544;-69
2021/12/20 10:55:44;;;;;;;;;14.67;13.67;;;;;8.41;68.22;102493.66;6242120;22;45371;-69
2021/12/20 10:58:15;;;;;;;;;21.33;21.00;;;;;8.39;69.04;102495.41;6241742;22;45391;-73
2021/12/20 11:00:40;;;;;;;;;18.33;16.33;;;;;8.27;68.88;102467.56;6241949;22;45315;-74
2021/12/20 11:03:27;;;;;;;;;18.00;13.33;;;;;8.33;69.05;102472.78;6242065;22;46645;-72
2021/12/20 11:06:24;;;;;;;;;15.00;14.67;;;;;8.42;68.31;102484.97;6214540;22;45163;-73
2021/12/20 11:11:26;;;;;;;;;13.67;11.33;;;;;8.21;68.28;102433.59;6241809;22;45347;-72
2021/12/20 11:13:52;;;;;;;;;18.33;15.00;;;;;8.16;68.34;102411.84;6242158;22;46401;-71
2021/12/20 11:16:36;;;;;;;;;18.67;8.00;;;;;8.48;68.04;102456.16;6214427;22;45821;-72
2021/12/20 11:19:16;;;;;;;;;13.00;13.00;;;;;8.47;67.95;102443.94;6241809;22;45294;-72
2021/12/20 11:22:09;;;;;;;;;11.00;11.00;;;;;8.63;66.44;102470.03;6241949;22;45241;-73
2021/12/20 11:24:46;;;;;;;;;16.00;10.67;;;;;8.67;65.46;102476.97;6236992;22;45383;-72
2021/12/20 11:27:16;;;;;;;;;12.33;12.33;;;;;8.66;66.50;102465.66;6241848;22;45450;-73
2021/12/20 11:29:44;;;;;;;;;10.00;10.00;;;;;7.99;65.68;102350.06;6214387;22;45299;-72